createdAt,value
2019-01-20T00:00:08.504Z,0.1
2019-01-20T00:01:08.552Z,0.1
2019-01-20T00:02:08.583Z,0.1
2019-01-20T00:03:08.511Z,0.1
2019-01-20T00:04:08.516Z,0.1
2019-01-20T00:05:08.514Z,0.1
2019-01-20T00:06:08.499Z,0.1
2019-01-20T00:07:08.564Z,0.1
2019-01-20T00:08:08.504Z,0.1
2019-01-20T00:09:08.500Z,0
2019-01-20T00:10:08.560Z,0
2019-01-20T00:11:08.507Z,0
2019-01-20T00:12:08.478Z,0
2019-01-20T00:13:08.489Z,0
2019-01-20T00:14:08.508Z,0
2019-01-20T00:15:08.584Z,0
2019-01-20T00:16:08.493Z,0
2019-01-20T00:17:08.527Z,0
2019-01-20T00:18:08.544Z,0
2019-01-20T00:19:08.495Z,0
2019-01-20T00:20:08.518Z,0
2019-01-20T00:21:08.488Z,0.1
2019-01-20T00:22:08.569Z,0.1
2019-01-20T00:23:08.485Z,0.1
2019-01-20T00:24:08.499Z,0.1
2019-01-20T00:25:08.598Z,0.2
2019-01-20T00:26:08.539Z,0.3
2019-01-20T00:27:08.498Z,0.4
2019-01-20T00:28:08.553Z,0.6
2019-01-20T00:29:08.556Z,0.6
2019-01-20T00:30:08.506Z,0.8
2019-01-20T00:31:08.506Z,0.9
2019-01-20T00:32:08.541Z,1
2019-01-20T00:33:08.552Z,0.9
2019-01-20T00:34:08.563Z,0.8
2019-01-20T00:35:08.588Z,0.8
2019-01-20T00:36:08.481Z,0.8
2019-01-20T00:37:08.484Z,0.8
2019-01-20T00:38:08.485Z,0.8
2019-01-20T00:39:08.476Z,1.2
2019-01-20T00:40:08.536Z,1.6
2019-01-20T00:41:08.491Z,1.8
2019-01-20T00:42:08.477Z,2
2019-01-20T00:43:08.537Z,2.2
2019-01-20T00:44:08.548Z,2.4
2019-01-20T00:45:08.471Z,2.5
2019-01-20T00:46:08.484Z,2.6
2019-01-20T00:47:08.477Z,2.7
2019-01-20T00:48:08.562Z,2.6
2019-01-20T00:49:08.479Z,2.6
2019-01-20T00:50:08.462Z,2.5
2019-01-20T00:51:08.474Z,2.4
2019-01-20T00:52:08.496Z,2.3
2019-01-20T00:53:08.522Z,2.2
2019-01-20T00:54:08.480Z,2.1
2019-01-20T00:55:08.475Z,2
2019-01-20T00:56:08.535Z,1.8
2019-01-20T00:57:08.484Z,1.6
2019-01-20T00:58:08.468Z,1.5
2019-01-20T00:59:08.475Z,1.3
2019-01-20T01:00:08.490Z,1.2
2019-01-20T01:01:08.583Z,1.1
2019-01-20T01:02:08.474Z,1
2019-01-20T01:03:08.471Z,0.9
2019-01-20T01:04:08.486Z,0.8
2019-01-20T01:05:08.484Z,0.7
2019-01-20T01:06:08.531Z,0.7
2019-01-20T01:07:08.460Z,0.6
2019-01-20T01:08:08.468Z,0.5
2019-01-20T01:09:08.480Z,0.5
2019-01-20T01:10:08.535Z,0.4
2019-01-20T01:11:08.479Z,0.4
2019-01-20T01:12:08.455Z,0.4
2019-01-20T01:13:08.521Z,0.3
2019-01-20T01:14:08.525Z,0.3
2019-01-20T01:15:08.547Z,0.3
2019-01-20T01:16:08.475Z,0.2
2019-01-20T01:17:08.460Z,0.2
2019-01-20T01:18:08.456Z,0.2
2019-01-20T01:19:08.533Z,0.2
2019-01-20T01:20:08.473Z,0.2
2019-01-20T01:21:08.465Z,0.1
2019-01-20T01:22:08.466Z,0.1
2019-01-20T01:23:08.454Z,0.1
2019-01-20T01:24:08.546Z,0.1
2019-01-20T01:25:08.467Z,0.1
2019-01-20T01:26:08.472Z,0.1
2019-01-20T01:27:08.467Z,0.1
2019-01-20T01:28:08.446Z,0.1
2019-01-20T01:29:08.544Z,0.1
2019-01-20T01:30:08.460Z,0.1
2019-01-20T01:31:08.454Z,0.1
2019-01-20T01:32:08.479Z,0
2019-01-20T01:33:08.452Z,0
2019-01-20T01:34:08.523Z,0
2019-01-20T01:35:08.462Z,0
2019-01-20T01:36:08.466Z,0
2019-01-20T01:37:08.461Z,0
2019-01-20T01:38:08.509Z,0
2019-01-20T01:39:08.442Z,0
2019-01-20T01:40:08.462Z,0
2019-01-20T01:41:08.536Z,0
2019-01-20T01:42:08.471Z,0
2019-01-20T01:43:08.466Z,0
2019-01-20T01:44:08.502Z,0
2019-01-20T01:45:08.433Z,0
2019-01-20T01:46:08.515Z,0
2019-01-20T01:47:08.459Z,0
2019-01-20T01:48:08.447Z,0
2019-01-20T01:49:08.512Z,0
2019-01-20T01:50:08.501Z,0
2019-01-20T01:51:08.497Z,0
2019-01-20T01:52:08.461Z,0
2019-01-20T01:53:08.455Z,0
2019-01-20T01:54:08.493Z,0
2019-01-20T01:55:08.447Z,0
2019-01-20T01:56:08.499Z,0
2019-01-20T01:57:08.445Z,0
2019-01-20T01:58:08.531Z,0
2019-01-20T01:59:08.549Z,0
2019-01-20T02:00:08.447Z,0
2019-01-20T02:01:08.437Z,0
2019-01-20T02:02:08.454Z,0
2019-01-20T02:03:08.508Z,0
2019-01-20T02:04:08.446Z,0
2019-01-20T02:05:08.446Z,0
2019-01-20T02:06:08.520Z,0
2019-01-20T02:07:08.425Z,0
2019-01-20T02:08:08.456Z,0
2019-01-20T02:09:08.450Z,0
2019-01-20T02:10:08.500Z,0
2019-01-20T02:11:08.456Z,0
2019-01-20T02:12:08.441Z,0
2019-01-20T02:13:08.439Z,0
2019-01-20T02:14:08.442Z,0
2019-01-20T02:15:08.528Z,0
2019-01-20T02:16:08.457Z,0
2019-01-20T02:17:08.421Z,0
2019-01-20T02:18:08.427Z,0
2019-01-20T02:19:08.515Z,0
2019-01-20T02:20:08.442Z,0
2019-01-20T02:21:08.440Z,0
2019-01-20T02:22:08.455Z,0
2019-01-20T02:23:08.421Z,0
2019-01-20T02:24:08.506Z,0
2019-01-20T02:25:08.449Z,0
2019-01-20T02:26:08.503Z,0
2019-01-20T02:27:08.497Z,0
2019-01-20T02:28:08.429Z,0
2019-01-20T02:29:08.431Z,0
2019-01-20T02:30:08.454Z,0
2019-01-20T02:31:08.437Z,0
2019-01-20T02:32:08.488Z,0
2019-01-20T02:33:08.435Z,0
2019-01-20T02:34:08.434Z,0
2019-01-20T02:35:08.505Z,0
2019-01-20T02:36:08.441Z,0
2019-01-20T02:37:08.498Z,0
2019-01-20T02:38:08.428Z,0
2019-01-20T02:39:08.428Z,0
2019-01-20T02:40:08.436Z,0.1
2019-01-20T02:41:08.453Z,0.3
2019-01-20T02:42:08.495Z,0.4
2019-01-20T02:43:08.448Z,0.5
2019-01-20T02:44:08.413Z,0.7
2019-01-20T02:45:08.415Z,0.9
2019-01-20T02:46:08.429Z,1.1
2019-01-20T02:47:08.507Z,1
2019-01-20T02:48:08.432Z,0.9
2019-01-20T02:49:08.427Z,0.8
2019-01-20T02:50:08.403Z,0.8
2019-01-20T02:51:08.494Z,0.7
2019-01-20T02:52:08.442Z,0.6
2019-01-20T02:53:08.496Z,0.6
2019-01-20T02:54:08.433Z,0.5
2019-01-20T02:55:08.419Z,0.5
2019-01-20T02:56:08.406Z,0.4
2019-01-20T02:57:08.443Z,0.4
2019-01-20T02:58:08.502Z,0.3
2019-01-20T02:59:08.412Z,0.3
2019-01-20T03:00:08.471Z,0.3
2019-01-20T03:01:08.404Z,0.3
2019-01-20T03:02:08.431Z,0.2
2019-01-20T03:03:08.433Z,0.2
2019-01-20T03:04:08.534Z,0.2
2019-01-20T03:05:08.426Z,0.2
2019-01-20T03:06:08.422Z,0.6
2019-01-20T03:07:08.420Z,0.9
2019-01-20T03:08:08.470Z,1.2
2019-01-20T03:09:08.412Z,1.5
2019-01-20T03:10:08.432Z,1.8
2019-01-20T03:11:08.419Z,2
2019-01-20T03:12:08.509Z,2.2
2019-01-20T03:13:08.412Z,2.3
2019-01-20T03:14:08.495Z,2.5
2019-01-20T03:15:08.410Z,2.6
2019-01-20T03:16:08.440Z,2.7
2019-01-20T03:17:08.410Z,2.9
2019-01-20T03:18:08.458Z,3
2019-01-20T03:19:08.492Z,3.4
2019-01-20T03:20:08.413Z,4
2019-01-20T03:21:08.410Z,4.3
2019-01-20T03:22:08.415Z,4.5
2019-01-20T03:23:08.459Z,4.8
2019-01-20T03:24:08.473Z,4.9
2019-01-20T03:25:08.414Z,5.1
2019-01-20T03:26:08.407Z,5.2
2019-01-20T03:27:08.403Z,5.3
2019-01-20T03:28:08.481Z,5.2
2019-01-20T03:29:08.419Z,5.2
2019-01-20T03:30:08.431Z,5.1
2019-01-20T03:31:08.427Z,4.9
2019-01-20T03:32:08.425Z,4.7
2019-01-20T03:33:08.469Z,4.6
2019-01-20T03:34:08.413Z,4.4
2019-01-20T03:35:08.389Z,4.1
2019-01-20T03:36:08.414Z,3.9
2019-01-20T03:37:08.458Z,3.8
2019-01-20T03:38:08.460Z,3.6
2019-01-20T03:39:08.420Z,3.5
2019-01-20T03:40:08.438Z,3.3
2019-01-20T03:41:08.455Z,3.3
2019-01-20T03:42:11.972Z,3.3
2019-01-20T03:43:08.411Z,3.1
2019-01-20T03:44:08.389Z,3
2019-01-20T03:45:08.471Z,2.9
2019-01-20T03:46:08.398Z,2.8
2019-01-20T03:47:08.472Z,2.7
2019-01-20T03:48:08.408Z,2.6
2019-01-20T03:49:08.408Z,2.5
2019-01-20T03:50:08.480Z,2.4
2019-01-20T03:51:08.471Z,2.3
2019-01-20T03:52:08.392Z,2.2
2019-01-20T03:53:08.413Z,2
2019-01-20T03:54:08.402Z,1.8
2019-01-20T03:55:08.389Z,1.6
2019-01-20T03:56:08.460Z,1.5
2019-01-20T03:57:08.398Z,1.3
2019-01-20T03:58:08.472Z,1.2
2019-01-20T03:59:08.397Z,1.1
2019-01-20T04:00:08.394Z,1
2019-01-20T04:01:08.453Z,0.9
2019-01-20T04:02:08.406Z,0.8
2019-01-20T04:03:08.482Z,0.7
2019-01-20T04:04:08.410Z,0.7
2019-01-20T04:05:08.383Z,0.6
2019-01-20T04:06:08.400Z,0.5
2019-01-20T04:07:08.390Z,0.5
2019-01-20T04:08:08.447Z,0.4
2019-01-20T04:09:08.406Z,0.4
2019-01-20T04:10:08.481Z,0.4
2019-01-20T04:11:08.379Z,0.3
2019-01-20T04:12:08.375Z,0.3
2019-01-20T04:13:08.388Z,0.3
2019-01-20T04:14:08.377Z,0.2
2019-01-20T04:15:08.466Z,0.2
2019-01-20T04:16:08.376Z,0.2
2019-01-20T04:17:08.376Z,0.2
2019-01-20T04:18:08.379Z,0.2
2019-01-20T04:19:08.510Z,0.1
2019-01-20T04:20:08.386Z,0.1
2019-01-20T04:21:08.455Z,0.1
2019-01-20T04:22:08.361Z,0.1
2019-01-20T04:23:08.369Z,0.1
2019-01-20T04:24:08.392Z,0.1
2019-01-20T04:25:08.434Z,0.1
2019-01-20T04:26:08.394Z,0.1
2019-01-20T04:27:08.455Z,0.1
2019-01-20T04:28:08.374Z,0.1
2019-01-20T04:29:08.443Z,0.1
2019-01-20T04:30:08.385Z,0
2019-01-20T04:31:08.443Z,0
2019-01-20T04:32:08.376Z,0
2019-01-20T04:33:08.387Z,0
2019-01-20T04:34:08.392Z,0
2019-01-20T04:35:08.383Z,0
2019-01-20T04:36:08.437Z,0
2019-01-20T04:37:08.372Z,0
2019-01-20T04:38:08.393Z,0
2019-01-20T04:39:08.362Z,0
2019-01-20T04:40:08.436Z,0
2019-01-20T04:41:08.384Z,0
2019-01-20T04:42:08.380Z,0
2019-01-20T04:43:08.374Z,0
2019-01-20T04:44:08.394Z,0
2019-01-20T04:45:08.454Z,0
2019-01-20T04:46:08.369Z,0
2019-01-20T04:47:08.439Z,0
2019-01-20T04:48:08.370Z,0
2019-01-20T04:49:08.370Z,0
2019-01-20T04:50:08.366Z,0.1
2019-01-20T04:51:08.368Z,0.1
2019-01-20T04:52:08.378Z,0
2019-01-20T04:53:08.618Z,0
2019-01-20T04:54:08.455Z,0.2
2019-01-20T04:55:08.348Z,0.3
2019-01-20T04:56:08.344Z,0.4
2019-01-20T04:57:08.431Z,0.4
2019-01-20T04:58:08.446Z,0.3
2019-01-20T04:59:08.373Z,0.3
2019-01-20T05:00:08.365Z,0.3
2019-01-20T05:01:08.382Z,0.3
2019-01-20T05:02:08.358Z,0.2
2019-01-20T05:03:08.446Z,0.2
2019-01-20T05:04:08.440Z,0.2
2019-01-20T05:05:08.385Z,0.2
2019-01-20T05:06:08.341Z,0.2
2019-01-20T05:07:08.363Z,0.1
2019-01-20T05:08:08.354Z,0.1
2019-01-20T05:09:08.418Z,0.1
2019-01-20T05:10:08.364Z,0.1
2019-01-20T05:11:08.443Z,0.1
2019-01-20T05:12:08.339Z,0.1
2019-01-20T05:13:08.370Z,0.1
2019-01-20T05:14:08.371Z,0.1
2019-01-20T05:15:08.421Z,0.1
2019-01-20T05:16:08.354Z,0.1
2019-01-20T05:17:08.412Z,0.1
2019-01-20T05:18:08.371Z,0
2019-01-20T05:19:08.378Z,0
2019-01-20T05:20:08.417Z,0
2019-01-20T05:21:08.353Z,0
2019-01-20T05:22:08.352Z,0
2019-01-20T05:23:08.447Z,0
2019-01-20T05:24:08.367Z,0
2019-01-20T05:25:08.436Z,0
2019-01-20T05:26:08.373Z,0.1
2019-01-20T05:27:08.344Z,0.5
2019-01-20T05:28:08.364Z,0.8
2019-01-20T05:29:08.366Z,1.3
2019-01-20T05:30:08.424Z,1.8
2019-01-20T05:31:08.346Z,2.3
2019-01-20T05:32:08.412Z,2.7
2019-01-20T05:33:08.340Z,3
2019-01-20T05:34:08.353Z,3.1
2019-01-20T05:35:08.351Z,3.2
2019-01-20T05:36:08.366Z,3.2
2019-01-20T05:37:08.434Z,3.2
2019-01-20T05:38:08.344Z,3.2
2019-01-20T05:39:08.327Z,3.3
2019-01-20T05:40:08.343Z,3.3
2019-01-20T05:41:08.356Z,3.3
2019-01-20T05:42:08.436Z,3.3
2019-01-20T05:43:08.358Z,3.2
2019-01-20T05:44:08.346Z,2.9
2019-01-20T05:45:08.347Z,2.6
2019-01-20T05:46:08.340Z,2.4
2019-01-20T05:47:08.409Z,2.2
2019-01-20T05:48:08.341Z,2
2019-01-20T05:49:08.333Z,1.8
2019-01-20T05:50:08.322Z,1.6
2019-01-20T05:51:08.359Z,1.5
2019-01-20T05:52:08.421Z,1.4
2019-01-20T05:53:08.340Z,1.2
2019-01-20T05:54:08.337Z,1.1
2019-01-20T05:55:08.386Z,1
2019-01-20T05:56:08.337Z,0.9
2019-01-20T05:57:08.361Z,0.8
2019-01-20T05:58:08.361Z,0.7
2019-01-20T05:59:08.403Z,0.7
2019-01-20T06:00:08.331Z,0.6
2019-01-20T06:01:08.336Z,0.5
2019-01-20T06:02:08.333Z,0.5
2019-01-20T06:03:08.332Z,0.4
2019-01-20T06:04:08.466Z,0.4
2019-01-20T06:05:08.341Z,0.5
2019-01-20T06:06:08.348Z,0.7
2019-01-20T06:07:08.410Z,1
2019-01-20T06:08:08.355Z,1.2
2019-01-20T06:09:08.334Z,1.5
2019-01-20T06:10:08.312Z,1.6
2019-01-20T06:11:08.419Z,1.9
2019-01-20T06:12:08.331Z,2
2019-01-20T06:13:08.339Z,2.1
2019-01-20T06:14:08.341Z,2.3
2019-01-20T06:15:08.333Z,2.4
2019-01-20T06:16:08.344Z,2.4
2019-01-20T06:17:08.331Z,2.5
2019-01-20T06:18:08.345Z,2.6
2019-01-20T06:19:08.320Z,2.6
2019-01-20T06:20:08.406Z,2.7
2019-01-20T06:21:08.331Z,2.7
2019-01-20T06:22:08.315Z,2.7
2019-01-20T06:23:08.302Z,2.7
2019-01-20T06:24:08.405Z,2.6
2019-01-20T06:25:08.327Z,2.5
2019-01-20T06:26:08.331Z,2.3
2019-01-20T06:27:08.335Z,2.2
2019-01-20T06:28:08.379Z,2
2019-01-20T06:29:08.327Z,1.8
2019-01-20T06:30:08.330Z,1.6
2019-01-20T06:31:08.396Z,1.5
2019-01-20T06:32:08.334Z,1.3
2019-01-20T06:33:08.310Z,1.2
2019-01-20T06:34:08.358Z,1.3
2019-01-20T06:35:08.327Z,1.3
2019-01-20T06:36:08.326Z,1.2
2019-01-20T06:37:08.323Z,1.1
2019-01-20T06:38:08.325Z,1
2019-01-20T06:39:08.376Z,0.9
2019-01-20T06:40:08.329Z,0.8
2019-01-20T06:41:09.745Z,0.7
2019-01-20T06:42:09.530Z,0.7
2019-01-20T06:43:09.826Z,0.6
2019-01-20T06:44:08.967Z,0.6
2019-01-20T06:45:08.544Z,0.5
2019-01-20T06:46:08.528Z,0.5
2019-01-20T06:47:08.591Z,0.4
2019-01-20T06:48:09.906Z,0.4
2019-01-20T06:49:09.069Z,0.3
2019-01-20T06:50:09.439Z,0.3
2019-01-20T06:51:09.411Z,0.3
2019-01-20T06:52:11.331Z,0.2
2019-01-20T06:53:09.701Z,0.2
2019-01-20T06:54:08.733Z,0.2
2019-01-20T06:55:12.983Z,0.2
2019-01-20T06:56:09.092Z,0.2
2019-01-20T06:57:09.854Z,0.2
2019-01-20T06:58:09.521Z,0.1
2019-01-20T06:59:10.853Z,0.1
2019-01-20T07:00:09.302Z,0.1
2019-01-20T07:01:08.413Z,0.1
2019-01-20T07:02:09.371Z,0.1
2019-01-20T07:03:09.627Z,0.1
2019-01-20T07:04:09.118Z,0.1
2019-01-20T07:05:08.608Z,0.1
2019-01-20T07:06:09.339Z,0.1
2019-01-20T07:07:09.570Z,0.1
2019-01-20T07:08:09.304Z,0.1
2019-01-20T07:09:09.852Z,0
2019-01-20T07:10:09.115Z,0
2019-01-20T07:11:09.514Z,0
2019-01-20T07:12:08.966Z,0
2019-01-20T07:13:09.321Z,0.1
2019-01-20T07:14:09.113Z,0.1
2019-01-20T07:15:09.040Z,0.1
2019-01-20T07:16:09.702Z,0
2019-01-20T07:17:09.543Z,0
2019-01-20T07:18:09.130Z,0
2019-01-20T07:19:08.526Z,0.1
2019-01-20T07:20:09.327Z,0.3
2019-01-20T07:21:08.582Z,0.4
2019-01-20T07:22:12.960Z,0.7
2019-01-20T07:23:08.727Z,0.8
2019-01-20T07:24:08.546Z,1
2019-01-20T07:25:09.862Z,1.1
2019-01-20T07:26:09.029Z,1.3
2019-01-20T07:27:09.092Z,1.3
2019-01-20T07:28:09.233Z,1.3
2019-01-20T07:29:09.168Z,1.3
2019-01-20T07:30:09.835Z,1.4
2019-01-20T07:31:08.737Z,1.7
2019-01-20T07:32:08.756Z,1.8
2019-01-20T07:33:10.234Z,2
2019-01-20T07:34:09.473Z,2.1
2019-01-20T07:35:08.874Z,2.1
2019-01-20T07:36:08.748Z,2.2
2019-01-20T07:37:09.870Z,2.2
2019-01-20T07:38:09.707Z,2.4
2019-01-20T07:39:09.640Z,2.3
2019-01-20T07:40:08.837Z,2.4
2019-01-20T07:41:10.295Z,2.6
2019-01-20T07:42:08.621Z,2.8
2019-01-20T07:43:08.394Z,2.8
2019-01-20T07:44:09.291Z,2.7
2019-01-20T07:45:08.326Z,2.8
2019-01-20T07:46:08.367Z,3
2019-01-20T07:47:08.341Z,3.2
2019-01-20T07:48:08.297Z,3.3
2019-01-20T07:49:08.268Z,3.3
2019-01-20T07:50:08.279Z,3.2
2019-01-20T07:51:08.274Z,3
2019-01-20T07:52:08.348Z,2.9
2019-01-20T07:53:08.275Z,2.7
2019-01-20T07:54:08.270Z,2.4
2019-01-20T07:55:08.268Z,2.2
2019-01-20T07:56:08.351Z,2
2019-01-20T07:57:08.370Z,2
2019-01-20T07:58:08.290Z,1.9
2019-01-20T07:59:08.292Z,1.9
2019-01-20T08:00:09.669Z,1.8
2019-01-20T08:01:10.842Z,1.9
2019-01-20T08:02:10.744Z,1.7
2019-01-20T08:03:11.337Z,1.6
2019-01-20T08:04:10.707Z,1.5
2019-01-20T08:05:08.616Z,1.3
2019-01-20T08:06:10.963Z,1.3
2019-01-20T08:07:10.408Z,1.2
2019-01-20T08:08:09.168Z,1
2019-01-20T08:09:10.607Z,0.9
2019-01-20T08:10:08.394Z,0.9
2019-01-20T08:11:10.030Z,0.8
2019-01-20T08:12:09.049Z,0.8
2019-01-20T08:13:09.204Z,1
2019-01-20T08:14:08.252Z,1.1
2019-01-20T08:15:08.449Z,1.1
2019-01-20T08:16:08.506Z,1.1
2019-01-20T08:17:08.500Z,1.3
2019-01-20T08:18:09.209Z,1.2
2019-01-20T08:19:09.569Z,1.3
2019-01-20T08:20:09.336Z,1.3
2019-01-20T08:21:08.345Z,1.2
2019-01-20T08:22:08.907Z,1.2
2019-01-20T08:23:09.537Z,1.2
2019-01-20T08:24:09.323Z,1.1
2019-01-20T08:25:08.988Z,1
2019-01-20T08:26:09.434Z,1
2019-01-20T08:27:08.483Z,0.9
2019-01-20T08:28:09.415Z,0.9
2019-01-20T08:29:12.606Z,1.1
2019-01-20T08:30:11.359Z,1
2019-01-20T08:31:08.774Z,1.2
2019-01-20T08:32:09.712Z,1.3
2019-01-20T08:33:10.091Z,1.2
2019-01-20T08:34:09.490Z,1.1
2019-01-20T08:35:08.557Z,1.3
2019-01-20T08:36:09.612Z,1.5
2019-01-20T08:37:08.336Z,1.8
2019-01-20T08:38:08.959Z,2
2019-01-20T08:39:09.715Z,2.2
2019-01-20T08:40:10.338Z,2.4
2019-01-20T08:41:09.146Z,2.5
2019-01-20T08:42:09.291Z,2.4
2019-01-20T08:43:09.090Z,2.2
2019-01-20T08:44:09.059Z,2.4
2019-01-20T08:45:08.269Z,2.6
2019-01-20T08:46:08.285Z,2.6
2019-01-20T08:47:08.263Z,2.6
2019-01-20T08:48:08.321Z,2.7
2019-01-20T08:49:08.266Z,2.8
2019-01-20T08:50:08.261Z,2.7
2019-01-20T08:51:08.280Z,2.6
2019-01-20T08:52:08.359Z,2.6
2019-01-20T08:53:08.328Z,2.6
2019-01-20T08:54:08.263Z,2.6
2019-01-20T08:55:08.276Z,2.7
2019-01-20T08:56:08.282Z,2.6
2019-01-20T08:57:08.345Z,2.3
2019-01-20T08:58:08.277Z,2.1
2019-01-20T08:59:08.273Z,2.1
2019-01-20T09:00:08.351Z,2.3
2019-01-20T09:01:08.273Z,2.6
2019-01-20T09:02:08.278Z,2.6
2019-01-20T09:03:08.326Z,2.6
2019-01-20T09:04:08.262Z,2.5
2019-01-20T09:05:08.262Z,2.3
2019-01-20T09:06:08.318Z,2.3
2019-01-20T09:07:08.268Z,2.4
2019-01-20T09:08:08.248Z,2.3
2019-01-20T09:09:08.259Z,2.3
2019-01-20T09:10:08.272Z,2.2
2019-01-20T09:11:08.395Z,2.1
2019-01-20T09:12:08.279Z,1.9
2019-01-20T09:13:08.274Z,1.7
2019-01-20T09:14:08.297Z,1.5
2019-01-20T09:15:08.960Z,1.4
2019-01-20T09:16:08.328Z,1.3
2019-01-20T09:17:08.259Z,1.2
2019-01-20T09:18:08.296Z,1.1
2019-01-20T09:19:08.262Z,1.2
2019-01-20T09:20:08.259Z,1.3
2019-01-20T09:21:08.253Z,1.1
2019-01-20T09:22:08.248Z,1
2019-01-20T09:23:08.339Z,0.9
2019-01-20T09:24:08.272Z,0.9
2019-01-20T09:25:08.283Z,0.9
2019-01-20T09:26:08.420Z,0.8
2019-01-20T09:27:08.260Z,0.7
2019-01-20T09:28:08.247Z,0.6
2019-01-20T09:29:08.261Z,0.6
2019-01-20T09:30:08.245Z,0.8
2019-01-20T09:31:08.336Z,0.7
2019-01-20T09:32:08.262Z,0.7
2019-01-20T09:33:08.277Z,0.7
2019-01-20T09:34:08.320Z,0.6
2019-01-20T09:35:08.266Z,0.5
2019-01-20T09:36:08.255Z,0.5
2019-01-20T09:37:08.288Z,0.4
2019-01-20T09:38:08.332Z,0.4
2019-01-20T09:39:08.348Z,0.4
2019-01-20T09:40:08.269Z,0.3
2019-01-20T09:41:08.343Z,0.3
2019-01-20T09:42:08.265Z,0.3
2019-01-20T09:43:08.341Z,0.3
2019-01-20T09:44:09.074Z,0.4
2019-01-20T09:45:08.272Z,0.8
2019-01-20T09:46:08.335Z,0.9
2019-01-20T09:47:08.257Z,0.9
2019-01-20T09:48:08.261Z,0.8
2019-01-20T09:49:08.281Z,0.8
2019-01-20T09:50:08.238Z,0.7
2019-01-20T09:51:08.345Z,0.6
2019-01-20T09:52:08.271Z,0.6
2019-01-20T09:53:08.266Z,0.5
2019-01-20T09:54:08.312Z,0.5
2019-01-20T09:55:08.252Z,0.5
2019-01-20T09:56:08.306Z,0.5
2019-01-20T09:57:08.279Z,0.6
2019-01-20T09:58:08.257Z,0.6
2019-01-20T09:59:08.279Z,0.7
2019-01-20T10:00:08.262Z,0.8
2019-01-20T10:01:08.316Z,0.7
2019-01-20T10:02:08.256Z,0.7
2019-01-20T10:03:08.322Z,0.7
2019-01-20T10:04:08.266Z,0.6
2019-01-20T10:05:08.259Z,0.5
2019-01-20T10:06:08.297Z,0.5
2019-01-20T10:07:08.276Z,0.9
2019-01-20T10:08:08.317Z,1.1
2019-01-20T10:09:08.277Z,1.1
2019-01-20T10:10:08.325Z,1
2019-01-20T10:11:08.253Z,0.9
2019-01-20T10:12:08.249Z,0.8
2019-01-20T10:13:08.339Z,0.7
2019-01-20T10:14:08.263Z,0.7
2019-01-20T10:15:08.263Z,0.6
2019-01-20T10:16:08.256Z,0.5
2019-01-20T10:17:08.311Z,0.5
2019-01-20T10:18:08.258Z,0.4
2019-01-20T10:19:08.271Z,0.4
2019-01-20T10:20:08.255Z,0.4
2019-01-20T10:21:08.335Z,0.3
2019-01-20T10:22:08.244Z,0.3
2019-01-20T10:23:08.451Z,0.4
2019-01-20T10:24:08.423Z,0.7
2019-01-20T10:25:14.874Z,1
2019-01-20T10:26:08.467Z,1.2
2019-01-20T10:27:08.281Z,1.4
2019-01-20T10:28:08.320Z,1.6
2019-01-20T10:29:08.265Z,1.8
2019-01-20T10:30:08.248Z,2.1
2019-01-20T10:31:08.259Z,2.2
2019-01-20T10:32:08.329Z,2.4
2019-01-20T10:33:08.242Z,2.4
2019-01-20T10:34:08.254Z,2.4
2019-01-20T10:35:08.257Z,2.4
2019-01-20T10:36:08.255Z,2.5
2019-01-20T10:37:08.345Z,2.4
2019-01-20T10:38:08.265Z,2.2
2019-01-20T10:39:08.274Z,2
2019-01-20T10:40:08.264Z,2
2019-01-20T10:41:08.256Z,1.8
2019-01-20T10:42:08.331Z,1.6
2019-01-20T10:43:08.272Z,1.4
2019-01-20T10:44:08.339Z,1.3
2019-01-20T10:45:08.347Z,1.2
2019-01-20T10:46:08.259Z,1.1
2019-01-20T10:47:08.275Z,1
2019-01-20T10:48:08.277Z,1
2019-01-20T10:49:08.243Z,1.1
2019-01-20T10:50:08.327Z,1.3
2019-01-20T10:51:08.269Z,1.5
2019-01-20T10:52:08.270Z,1.7
2019-01-20T10:53:08.261Z,1.6
2019-01-20T10:54:08.260Z,1.7
2019-01-20T10:55:08.402Z,1.5
2019-01-20T10:56:08.271Z,1.7
2019-01-20T10:57:08.284Z,1.9
2019-01-20T10:58:08.275Z,2.2
2019-01-20T10:59:08.276Z,2.5
2019-01-20T11:00:08.315Z,2.7
2019-01-20T11:01:08.279Z,2.6
2019-01-20T11:02:08.333Z,2.9
2019-01-20T11:03:08.277Z,2.9
2019-01-20T11:04:08.332Z,2.8
2019-01-20T11:05:08.254Z,3
2019-01-20T11:06:08.293Z,3.1
2019-01-20T11:07:08.268Z,3.4
2019-01-20T11:08:08.258Z,3.5
2019-01-20T11:09:08.328Z,3.3
2019-01-20T11:10:08.277Z,3.5
2019-01-20T11:11:08.335Z,3.8
2019-01-20T11:12:08.321Z,3.9
2019-01-20T11:13:08.269Z,3.9
2019-01-20T11:14:09.517Z,4
2019-01-20T11:15:08.282Z,4.3
2019-01-20T11:16:08.268Z,4.7
2019-01-20T11:17:08.307Z,4.7
2019-01-20T11:18:08.275Z,4.6
2019-01-20T11:19:08.352Z,4.4
2019-01-20T11:20:08.333Z,4.3
2019-01-20T11:21:08.277Z,4
2019-01-20T11:22:08.261Z,3.7
2019-01-20T11:23:08.239Z,3.3
2019-01-20T11:24:08.276Z,3
2019-01-20T11:25:08.257Z,2.9
2019-01-20T11:26:08.265Z,2.7
2019-01-20T11:27:08.267Z,2.8
2019-01-20T11:28:08.246Z,2.7
2019-01-20T11:29:08.259Z,2.5
2019-01-20T11:30:08.271Z,2.2
2019-01-20T11:31:08.254Z,2
2019-01-20T11:32:08.260Z,1.8
2019-01-20T11:33:08.247Z,1.6
2019-01-20T11:34:08.377Z,1.9
2019-01-20T11:35:08.269Z,2.1
2019-01-20T11:36:08.277Z,2.2
2019-01-20T11:37:08.325Z,2.3
2019-01-20T11:38:08.266Z,2.4
2019-01-20T11:39:08.311Z,2.3
2019-01-20T11:40:08.274Z,2.2
2019-01-20T11:41:08.282Z,2
2019-01-20T11:42:08.277Z,2.1
2019-01-20T11:43:08.271Z,2.2
2019-01-20T11:44:08.314Z,2
2019-01-20T11:45:08.299Z,2
2019-01-20T11:46:08.288Z,2.1
2019-01-20T11:47:08.258Z,2.2
2019-01-20T11:48:08.254Z,2.1
2019-01-20T11:49:08.322Z,1.9
2019-01-20T11:50:08.269Z,1.7
2019-01-20T11:51:08.269Z,1.5
2019-01-20T11:52:08.259Z,1.9
2019-01-20T11:53:08.282Z,2.1
2019-01-20T11:54:08.335Z,2.4
2019-01-20T11:55:08.255Z,2.8
2019-01-20T11:56:08.282Z,3.1
2019-01-20T11:57:08.311Z,3.4
2019-01-20T11:58:08.280Z,3.9
2019-01-20T11:59:08.365Z,4.1
2019-01-20T12:00:08.246Z,4
2019-01-20T12:01:08.242Z,3.9
2019-01-20T12:02:08.258Z,3.7
2019-01-20T12:03:08.341Z,3.4
2019-01-20T12:04:08.276Z,3.2
2019-01-20T12:05:08.258Z,3.3
2019-01-20T12:06:08.307Z,3.2
2019-01-20T12:07:08.265Z,3.3
2019-01-20T12:08:08.346Z,3.4
2019-01-20T12:09:08.269Z,3.2
2019-01-20T12:10:08.328Z,2.9
2019-01-20T12:11:08.244Z,3
2019-01-20T12:12:08.274Z,3.5
2019-01-20T12:13:08.307Z,4.1
2019-01-20T12:14:08.333Z,4.6
2019-01-20T12:15:08.248Z,4.7
2019-01-20T12:16:08.277Z,5
2019-01-20T12:17:08.243Z,5
2019-01-20T12:18:08.262Z,5.1
2019-01-20T12:19:08.335Z,5
2019-01-20T12:20:08.253Z,5.1
2019-01-20T12:21:08.280Z,4.9
2019-01-20T12:22:08.342Z,5
2019-01-20T12:23:08.297Z,5.2
2019-01-20T12:24:08.357Z,5.1
2019-01-20T12:25:08.288Z,5
2019-01-20T12:26:08.328Z,4.9
2019-01-20T12:27:08.256Z,4.6
2019-01-20T12:28:08.248Z,4.4
2019-01-20T12:29:08.254Z,4.1
2019-01-20T12:30:08.282Z,4.3
2019-01-20T12:31:08.337Z,4.2
2019-01-20T12:32:08.257Z,3.8
2019-01-20T12:33:08.269Z,3.6
2019-01-20T12:34:08.261Z,3.5
2019-01-20T12:35:08.328Z,3.7
2019-01-20T12:36:08.263Z,3.8
2019-01-20T12:37:08.267Z,3.8
2019-01-20T12:38:08.238Z,3.9
2019-01-20T12:39:08.240Z,3.9
2019-01-20T12:40:08.354Z,4.1
2019-01-20T12:41:08.239Z,4.2
2019-01-20T12:42:08.256Z,4.4
2019-01-20T12:43:08.253Z,4.7
2019-01-20T12:44:08.272Z,4.9
2019-01-20T12:45:08.325Z,4.9
2019-01-20T12:46:08.251Z,5.4
2019-01-20T12:47:08.266Z,5.2
2019-01-20T12:48:08.250Z,5
2019-01-20T12:49:08.240Z,4.9
2019-01-20T12:50:08.309Z,5
2019-01-20T12:51:12.304Z,5.2
2019-01-20T12:52:08.310Z,4.9
2019-01-20T12:53:08.324Z,5.1
2019-01-20T12:54:08.253Z,4.9
2019-01-20T12:55:08.307Z,5.1
2019-01-20T12:56:08.269Z,5.6
2019-01-20T12:57:08.259Z,5.9
2019-01-20T12:58:08.264Z,5.8
2019-01-20T12:59:08.256Z,5.8
2019-01-20T13:00:08.304Z,6.4
2019-01-20T13:01:08.257Z,6.6
2019-01-20T13:02:08.327Z,6.7
2019-01-20T13:03:08.260Z,6.6
2019-01-20T13:04:08.263Z,6.7
2019-01-20T13:05:08.274Z,6.6
2019-01-20T13:06:08.260Z,6.7
2019-01-20T13:07:08.305Z,7
2019-01-20T13:08:08.249Z,7.1
2019-01-20T13:09:08.272Z,7.1
2019-01-20T13:10:08.283Z,7.3
2019-01-20T13:11:08.238Z,7.7
2019-01-20T13:12:08.265Z,8
2019-01-20T13:13:08.248Z,8.3
2019-01-20T13:14:08.255Z,8.1
2019-01-20T13:15:08.270Z,8
2019-01-20T13:16:08.318Z,8
2019-01-20T13:17:08.248Z,8.5
2019-01-20T13:18:08.258Z,8.8
2019-01-20T13:19:08.317Z,9
2019-01-20T13:20:08.252Z,9.5
2019-01-20T13:21:08.309Z,10
2019-01-20T13:22:08.255Z,9.9
2019-01-20T13:23:08.269Z,9.9
2019-01-20T13:24:08.259Z,10.3
2019-01-20T13:25:08.248Z,10.4
2019-01-20T13:26:08.319Z,10.5
2019-01-20T13:27:08.269Z,10.6
2019-01-20T13:28:08.353Z,10.3
2019-01-20T13:29:08.265Z,10.2
2019-01-20T13:30:08.270Z,10.1
2019-01-20T13:31:08.344Z,10.6
2019-01-20T13:32:08.254Z,11.2
2019-01-20T13:33:08.232Z,11
2019-01-20T13:34:08.251Z,10.9
2019-01-20T13:35:08.254Z,10.6
2019-01-20T13:36:08.299Z,10.8
2019-01-20T13:37:08.258Z,11
2019-01-20T13:38:08.237Z,11.4
2019-01-20T13:39:08.345Z,11.6
2019-01-20T13:40:08.272Z,11.6
2019-01-20T13:41:08.261Z,12.1
2019-01-20T13:42:08.242Z,12
2019-01-20T13:43:08.329Z,11.7
2019-01-20T13:44:08.231Z,12.1
2019-01-20T13:45:08.259Z,12.4
2019-01-20T13:46:08.321Z,12.6
2019-01-20T13:47:08.265Z,12.8
2019-01-20T13:48:08.242Z,12.4
2019-01-20T13:49:08.237Z,11.8
2019-01-20T13:50:08.338Z,12
2019-01-20T13:51:08.254Z,12.7
2019-01-20T13:52:08.259Z,13.2
2019-01-20T13:53:08.249Z,13.2
2019-01-20T13:54:08.313Z,13.4
2019-01-20T13:55:08.232Z,13.6
2019-01-20T13:56:08.266Z,14.3
2019-01-20T13:57:08.259Z,14.5